sensor_id;sensor_type;location;lat;lon;timestamp;P1;durP1;ratioP1;P2;durP2;ratioP2
54807;SDS011;40708;50.364;7.550;2024-02-14T00:02:17;5.40;;;2.60;;
54807;SDS011;40708;50.364;7.550;2024-02-14T00:04:42;4.50;;;2.83;;
54807;SDS011;40708;50.364;7.550;2024-02-14T00:07:08;3.60;;;2.30;;
54807;SDS011;40708;50.364;7.550;2024-02-14T00:09:33;4.03;;;2.63;;
54807;SDS011;40708;50.364;7.550;2024-02-14T00:11:58;3.93;;;2.77;;
54807;SDS011;40708;50.364;7.550;2024-02-14T00:14:23;4.73;;;3.07;;
54807;SDS011;40708;50.364;7.550;2024-02-14T00:16:49;3.07;;;2.30;;
54807;SDS011;40708;50.364;7.550;2024-02-14T00:19:14;6.07;;;2.50;;
54807;SDS011;40708;50.364;7.550;2024-02-14T00:21:39;5.83;;;2.70;;
54807;SDS011;40708;50.364;7.550;2024-02-14T00:24:05;6.33;;;3.13;;
54807;SDS011;40708;50.364;7.550;2024-02-14T00:26:30;3.03;;;2.00;;
54807;SDS011;40708;50.364;7.550;2024-02-14T00:28:56;3.73;;;2.30;;
54807;SDS011;40708;50.364;7.550;2024-02-14T00:31:21;2.37;;;1.70;;
54807;SDS011;40708;50.364;7.550;2024-02-14T00:33:47;4.20;;;1.90;;
54807;SDS011;40708;50.364;7.550;2024-02-14T00:36:12;4.07;;;1.80;;
54807;SDS011;40708;50.364;7.550;2024-02-14T00:38:37;1.97;;;1.50;;
54807;SDS011;40708;50.364;7.550;2024-02-14T00:41:03;2.10;;;1.30;;
54807;SDS011;40708;50.364;7.550;2024-02-14T00:43:28;2.87;;;1.63;;
54807;SDS011;40708;50.364;7.550;2024-02-14T00:45:53;3.43;;;1.60;;
54807;SDS011;40708;50.364;7.550;2024-02-14T00:48:19;3.83;;;1.70;;
54807;SDS011;40708;50.364;7.550;2024-02-14T00:50:44;2.57;;;1.50;;
54807;SDS011;40708;50.364;7.550;2024-02-14T00:53:10;4.07;;;1.80;;
54807;SDS011;40708;50.364;7.550;2024-02-14T00:55:35;1.70;;;1.30;;
54807;SDS011;40708;50.364;7.550;2024-02-14T00:58:00;5.37;;;1.80;;
54807;SDS011;40708;50.364;7.550;2024-02-14T01:00:25;4.30;;;1.87;;
54807;SDS011;40708;50.364;7.550;2024-02-14T01:02:51;3.67;;;1.57;;
54807;SDS011;40708;50.364;7.550;2024-02-14T01:05:16;2.97;;;1.53;;
54807;SDS011;40708;50.364;7.550;2024-02-14T01:07:42;3.17;;;1.70;;
54807;SDS011;40708;50.364;7.550;2024-02-14T01:10:07;2.07;;;1.30;;
54807;SDS011;40708;50.364;7.550;2024-02-14T01:12:33;2.77;;;1.27;;
54807;SDS011;40708;50.364;7.550;2024-02-14T01:14:58;3.47;;;1.80;;
54807;SDS011;40708;50.364;7.550;2024-02-14T01:17:23;3.60;;;1.70;;
54807;SDS011;40708;50.364;7.550;2024-02-14T01:19:49;2.53;;;1.63;;
54807;SDS011;40708;50.364;7.550;2024-02-14T01:22:15;2.83;;;1.30;;
54807;SDS011;40708;50.364;7.550;2024-02-14T01:24:42;2.57;;;1.20;;
54807;SDS011;40708;50.364;7.550;2024-02-14T01:27:07;2.57;;;1.60;;
54807;SDS011;40708;50.364;7.550;2024-02-14T01:29:33;4.10;;;1.33;;
54807;SDS011;40708;50.364;7.550;2024-02-14T01:31:59;2.77;;;1.40;;
54807;SDS011;40708;50.364;7.550;2024-02-14T01:34:24;3.23;;;1.50;;
54807;SDS011;40708;50.364;7.550;2024-02-14T01:36:49;3.77;;;1.60;;
54807;SDS011;40708;50.364;7.550;2024-02-14T01:39:14;3.23;;;1.90;;
54807;SDS011;40708;50.364;7.550;2024-02-14T01:41:46;2.73;;;1.70;;
54807;SDS011;40708;50.364;7.550;2024-02-14T01:44:14;2.87;;;1.40;;
54807;SDS011;40708;50.364;7.550;2024-02-14T01:46:40;3.20;;;1.50;;
54807;SDS011;40708;50.364;7.550;2024-02-14T01:49:06;6.60;;;1.77;;
54807;SDS011;40708;50.364;7.550;2024-02-14T01:51:32;4.73;;;1.50;;
54807;SDS011;40708;50.364;7.550;2024-02-14T01:54:00;5.47;;;1.57;;
54807;SDS011;40708;50.364;7.550;2024-02-14T01:56:28;2.90;;;1.53;;
54807;SDS011;40708;50.364;7.550;2024-02-14T01:58:53;2.50;;;1.60;;
54807;SDS011;40708;50.364;7.550;2024-02-14T02:01:19;3.73;;;2.07;;
54807;SDS011;40708;50.364;7.550;2024-02-14T02:03:45;2.80;;;1.60;;
54807;SDS011;40708;50.364;7.550;2024-02-14T02:06:10;2.00;;;1.40;;
54807;SDS011;40708;50.364;7.550;2024-02-14T02:08:35;3.57;;;1.27;;
54807;SDS011;40708;50.364;7.550;2024-02-14T02:11:01;2.37;;;1.53;;
54807;SDS011;40708;50.364;7.550;2024-02-14T02:13:26;4.87;;;1.70;;
54807;SDS011;40708;50.364;7.550;2024-02-14T02:15:52;3.50;;;1.50;;
54807;SDS011;40708;50.364;7.550;2024-02-14T02:18:18;3.73;;;1.40;;
54807;SDS011;40708;50.364;7.550;2024-02-14T02:20:44;3.63;;;1.43;;
54807;SDS011;40708;50.364;7.550;2024-02-14T02:23:12;4.77;;;1.70;;
54807;SDS011;40708;50.364;7.550;2024-02-14T02:25:41;4.80;;;1.60;;
54807;SDS011;40708;50.364;7.550;2024-02-14T02:28:07;2.90;;;1.67;;
54807;SDS011;40708;50.364;7.550;2024-02-14T02:30:33;3.80;;;1.37;;
54807;SDS011;40708;50.364;7.550;2024-02-14T02:33:00;4.87;;;1.60;;
54807;SDS011;40708;50.364;7.550;2024-02-14T02:35:25;3.83;;;1.70;;
54807;SDS011;40708;50.364;7.550;2024-02-14T02:37:51;2.93;;;1.73;;
54807;SDS011;40708;50.364;7.550;2024-02-14T02:40:16;3.00;;;1.53;;
54807;SDS011;40708;50.364;7.550;2024-02-14T02:42:42;2.60;;;1.37;;
54807;SDS011;40708;50.364;7.550;2024-02-14T02:45:10;3.57;;;1.50;;
54807;SDS011;40708;50.364;7.550;2024-02-14T02:47:35;2.37;;;1.50;;
54807;SDS011;40708;50.364;7.550;2024-02-14T02:50:01;2.77;;;2.07;;
54807;SDS011;40708;50.364;7.550;2024-02-14T02:52:27;2.33;;;1.40;;
54807;SDS011;40708;50.364;7.550;2024-02-14T02:54:53;2.63;;;1.80;;
54807;SDS011;40708;50.364;7.550;2024-02-14T02:57:18;2.40;;;1.47;;
54807;SDS011;40708;50.364;7.550;2024-02-14T02:59:44;2.80;;;1.50;;
54807;SDS011;40708;50.364;7.550;2024-02-14T03:02:11;2.40;;;1.70;;
54807;SDS011;40708;50.364;7.550;2024-02-14T03:04:37;2.97;;;1.53;;
54807;SDS011;40708;50.364;7.550;2024-02-14T03:07:03;3.60;;;1.67;;
54807;SDS011;40708;50.364;7.550;2024-02-14T03:09:31;3.47;;;1.40;;
54807;SDS011;40708;50.364;7.550;2024-02-14T03:11:57;5.63;;;1.80;;
54807;SDS011;40708;50.364;7.550;2024-02-14T03:14:22;3.33;;;1.50;;
54807;SDS011;40708;50.364;7.550;2024-02-14T03:16:48;2.87;;;1.60;;
54807;SDS011;40708;50.364;7.550;2024-02-14T03:19:13;3.87;;;1.60;;
54807;SDS011;40708;50.364;7.550;2024-02-14T03:21:38;3.47;;;1.50;;
54807;SDS011;40708;50.364;7.550;2024-02-14T03:24:04;3.97;;;1.80;;
54807;SDS011;40708;50.364;7.550;2024-02-14T03:26:30;2.67;;;1.63;;
54807;SDS011;40708;50.364;7.550;2024-02-14T03:28:58;2.77;;;1.53;;
54807;SDS011;40708;50.364;7.550;2024-02-14T03:31:24;3.77;;;1.70;;
54807;SDS011;40708;50.364;7.550;2024-02-14T03:33:50;2.93;;;1.60;;
54807;SDS011;40708;50.364;7.550;2024-02-14T03:36:16;2.97;;;1.67;;
54807;SDS011;40708;50.364;7.550;2024-02-14T03:38:41;3.47;;;1.37;;
54807;SDS011;40708;50.364;7.550;2024-02-14T03:41:06;3.47;;;1.73;;
54807;SDS011;40708;50.364;7.550;2024-02-14T03:43:32;3.10;;;1.60;;
54807;SDS011;40708;50.364;7.550;2024-02-14T03:45:58;2.90;;;1.70;;
54807;SDS011;40708;50.364;7.550;2024-02-14T03:48:23;2.83;;;1.67;;
54807;SDS011;40708;50.364;7.550;2024-02-14T03:50:48;2.80;;;1.70;;
54807;SDS011;40708;50.364;7.550;2024-02-14T03:53:13;2.07;;;1.70;;
54807;SDS011;40708;50.364;7.550;2024-02-14T03:55:40;3.67;;;1.83;;
54807;SDS011;40708;50.364;7.550;2024-02-14T03:58:05;1.97;;;1.40;;
54807;SDS011;40708;50.364;7.550;2024-02-14T04:00:33;2.17;;;1.47;;
54807;SDS011;40708;50.364;7.550;2024-02-14T04:03:00;2.80;;;1.83;;
54807;SDS011;40708;50.364;7.550;2024-02-14T04:05:27;2.67;;;1.60;;
54807;SDS011;40708;50.364;7.550;2024-02-14T04:07:53;1.87;;;1.47;;
54807;SDS011;40708;50.364;7.550;2024-02-14T04:10:19;3.83;;;1.80;;
54807;SDS011;40708;50.364;7.550;2024-02-14T04:12:45;5.67;;;1.90;;
54807;SDS011;40708;50.364;7.550;2024-02-14T04:15:10;1.67;;;1.57;;
54807;SDS011;40708;50.364;7.550;2024-02-14T04:17:36;3.00;;;1.83;;
54807;SDS011;40708;50.364;7.550;2024-02-14T04:20:01;2.50;;;1.90;;
54807;SDS011;40708;50.364;7.550;2024-02-14T04:22:27;3.47;;;1.77;;
54807;SDS011;40708;50.364;7.550;2024-02-14T04:24:52;4.37;;;2.00;;
54807;SDS011;40708;50.364;7.550;2024-02-14T04:27:17;2.10;;;1.57;;
54807;SDS011;40708;50.364;7.550;2024-02-14T04:29:46;3.73;;;1.87;;
54807;SDS011;40708;50.364;7.550;2024-02-14T04:32:12;3.33;;;2.30;;
54807;SDS011;40708;50.364;7.550;2024-02-14T04:34:38;4.60;;;1.80;;
54807;SDS011;40708;50.364;7.550;2024-02-14T04:37:04;3.43;;;2.13;;
54807;SDS011;40708;50.364;7.550;2024-02-14T04:39:35;3.53;;;2.43;;
54807;SDS011;40708;50.364;7.550;2024-02-14T04:42:03;3.90;;;2.30;;
54807;SDS011;40708;50.364;7.550;2024-02-14T04:44:29;4.73;;;2.07;;
54807;SDS011;40708;50.364;7.550;2024-02-14T04:46:55;3.20;;;1.73;;
54807;SDS011;40708;50.364;7.550;2024-02-14T04:49:21;3.27;;;1.97;;
54807;SDS011;40708;50.364;7.550;2024-02-14T04:51:46;3.93;;;2.23;;
54807;SDS011;40708;50.364;7.550;2024-02-14T04:54:11;4.20;;;2.40;;
54807;SDS011;40708;50.364;7.550;2024-02-14T04:56:38;3.50;;;2.27;;
54807;SDS011;40708;50.364;7.550;2024-02-14T04:59:03;4.10;;;1.90;;
54807;SDS011;40708;50.364;7.550;2024-02-14T05:01:29;4.43;;;2.03;;
54807;SDS011;40708;50.364;7.550;2024-02-14T05:03:55;3.77;;;2.17;;
54807;SDS011;40708;50.364;7.550;2024-02-14T05:06:20;4.53;;;2.20;;
54807;SDS011;40708;50.364;7.550;2024-02-14T05:08:46;4.23;;;2.00;;
54807;SDS011;40708;50.364;7.550;2024-02-14T05:11:11;2.77;;;1.63;;
54807;SDS011;40708;50.364;7.550;2024-02-14T05:13:36;3.63;;;2.03;;
54807;SDS011;40708;50.364;7.550;2024-02-14T05:16:03;2.97;;;2.20;;
54807;SDS011;40708;50.364;7.550;2024-02-14T05:18:29;5.47;;;2.13;;
54807;SDS011;40708;50.364;7.550;2024-02-14T05:20:54;5.43;;;1.97;;
54807;SDS011;40708;50.364;7.550;2024-02-14T05:23:20;4.40;;;2.10;;
54807;SDS011;40708;50.364;7.550;2024-02-14T05:25:45;3.90;;;1.90;;
54807;SDS011;40708;50.364;7.550;2024-02-14T05:28:10;3.60;;;1.80;;
54807;SDS011;40708;50.364;7.550;2024-02-14T05:30:40;5.33;;;2.13;;
54807;SDS011;40708;50.364;7.550;2024-02-14T05:33:05;3.40;;;2.00;;
54807;SDS011;40708;50.364;7.550;2024-02-14T05:35:31;3.60;;;2.23;;
54807;SDS011;40708;50.364;7.550;2024-02-14T05:37:57;4.07;;;2.03;;
54807;SDS011;40708;50.364;7.550;2024-02-14T05:40:22;5.03;;;2.63;;
54807;SDS011;40708;50.364;7.550;2024-02-14T05:42:49;7.00;;;2.80;;
54807;SDS011;40708;50.364;7.550;2024-02-14T05:45:14;3.50;;;2.10;;
54807;SDS011;40708;50.364;7.550;2024-02-14T05:47:39;3.60;;;2.07;;
54807;SDS011;40708;50.364;7.550;2024-02-14T05:50:05;5.83;;;2.50;;
54807;SDS011;40708;50.364;7.550;2024-02-14T05:52:33;6.57;;;2.30;;
54807;SDS011;40708;50.364;7.550;2024-02-14T05:54:59;3.43;;;2.40;;
54807;SDS011;40708;50.364;7.550;2024-02-14T05:57:24;2.97;;;2.20;;
54807;SDS011;40708;50.364;7.550;2024-02-14T05:59:49;3.60;;;2.50;;
54807;SDS011;40708;50.364;7.550;2024-02-14T06:02:15;2.80;;;2.00;;
54807;SDS011;40708;50.364;7.550;2024-02-14T06:04:40;3.23;;;2.13;;
54807;SDS011;40708;50.364;7.550;2024-02-14T06:07:07;4.73;;;2.10;;
54807;SDS011;40708;50.364;7.550;2024-02-14T06:09:35;2.40;;;2.00;;
54807;SDS011;40708;50.364;7.550;2024-02-14T06:12:00;3.37;;;2.00;;
54807;SDS011;40708;50.364;7.550;2024-02-14T06:14:25;4.90;;;2.30;;
54807;SDS011;40708;50.364;7.550;2024-02-14T06:16:51;3.07;;;2.47;;
54807;SDS011;40708;50.364;7.550;2024-02-14T06:19:17;4.17;;;2.40;;
54807;SDS011;40708;50.364;7.550;2024-02-14T06:21:42;4.07;;;2.30;;
54807;SDS011;40708;50.364;7.550;2024-02-14T06:24:07;5.37;;;2.47;;
54807;SDS011;40708;50.364;7.550;2024-02-14T06:26:35;4.67;;;1.90;;
54807;SDS011;40708;50.364;7.550;2024-02-14T06:29:00;4.07;;;2.40;;
54807;SDS011;40708;50.364;7.550;2024-02-14T06:31:27;3.63;;;2.03;;
54807;SDS011;40708;50.364;7.550;2024-02-14T06:33:52;5.77;;;2.27;;
54807;SDS011;40708;50.364;7.550;2024-02-14T06:36:17;3.97;;;2.13;;
54807;SDS011;40708;50.364;7.550;2024-02-14T06:38:43;4.43;;;2.20;;
54807;SDS011;40708;50.364;7.550;2024-02-14T06:41:11;3.33;;;2.20;;
54807;SDS011;40708;50.364;7.550;2024-02-14T06:43:36;3.40;;;2.30;;
54807;SDS011;40708;50.364;7.550;2024-02-14T06:46:03;2.93;;;2.30;;
54807;SDS011;40708;50.364;7.550;2024-02-14T06:48:29;2.80;;;1.97;;
54807;SDS011;40708;50.364;7.550;2024-02-14T06:50:54;4.27;;;2.00;;
54807;SDS011;40708;50.364;7.550;2024-02-14T06:53:19;2.57;;;1.90;;
54807;SDS011;40708;50.364;7.550;2024-02-14T06:55:44;2.57;;;1.90;;
54807;SDS011;40708;50.364;7.550;2024-02-14T06:58:10;4.43;;;1.97;;
54807;SDS011;40708;50.364;7.550;2024-02-14T07:00:35;3.70;;;1.70;;
54807;SDS011;40708;50.364;7.550;2024-02-14T07:03:00;2.73;;;1.97;;
54807;SDS011;40708;50.364;7.550;2024-02-14T07:05:26;2.07;;;1.67;;
54807;SDS011;40708;50.364;7.550;2024-02-14T07:07:52;2.30;;;1.77;;
54807;SDS011;40708;50.364;7.550;2024-02-14T07:10:18;3.43;;;2.07;;
54807;SDS011;40708;50.364;7.550;2024-02-14T07:12:43;2.93;;;1.70;;
54807;SDS011;40708;50.364;7.550;2024-02-14T07:15:08;3.93;;;1.80;;
54807;SDS011;40708;50.364;7.550;2024-02-14T07:17:33;4.23;;;1.90;;
54807;SDS011;40708;50.364;7.550;2024-02-14T07:19:59;2.70;;;1.60;;
54807;SDS011;40708;50.364;7.550;2024-02-14T07:22:24;4.67;;;1.90;;
54807;SDS011;40708;50.364;7.550;2024-02-14T07:24:49;2.80;;;1.83;;
54807;SDS011;40708;50.364;7.550;2024-02-14T07:27:15;2.30;;;1.63;;
54807;SDS011;40708;50.364;7.550;2024-02-14T07:29:41;2.97;;;1.70;;
54807;SDS011;40708;50.364;7.550;2024-02-14T07:32:06;2.77;;;1.53;;
54807;SDS011;40708;50.364;7.550;2024-02-14T07:34:32;2.93;;;1.80;;
54807;SDS011;40708;50.364;7.550;2024-02-14T07:36:57;2.60;;;1.80;;
54807;SDS011;40708;50.364;7.550;2024-02-14T07:39:23;2.80;;;2.00;;
54807;SDS011;40708;50.364;7.550;2024-02-14T07:41:48;3.20;;;1.90;;
54807;SDS011;40708;50.364;7.550;2024-02-14T07:44:14;3.13;;;2.00;;
54807;SDS011;40708;50.364;7.550;2024-02-14T07:46:39;3.73;;;1.90;;
54807;SDS011;40708;50.364;7.550;2024-02-14T07:49:04;4.13;;;1.83;;
54807;SDS011;40708;50.364;7.550;2024-02-14T07:51:31;3.90;;;2.00;;
54807;SDS011;40708;50.364;7.550;2024-02-14T07:54:01;3.73;;;2.20;;
54807;SDS011;40708;50.364;7.550;2024-02-14T07:56:27;4.67;;;1.80;;
54807;SDS011;40708;50.364;7.550;2024-02-14T07:58:53;2.50;;;2.03;;
54807;SDS011;40708;50.364;7.550;2024-02-14T08:01:18;3.17;;;2.03;;
54807;SDS011;40708;50.364;7.550;2024-02-14T08:03:44;3.20;;;1.80;;
54807;SDS011;40708;50.364;7.550;2024-02-14T08:06:11;2.30;;;2.00;;
54807;SDS011;40708;50.364;7.550;2024-02-14T08:08:36;4.63;;;2.93;;
54807;SDS011;40708;50.364;7.550;2024-02-14T08:11:02;1.90;;;1.70;;
54807;SDS011;40708;50.364;7.550;2024-02-14T08:13:27;2.13;;;1.67;;
54807;SDS011;40708;50.364;7.550;2024-02-14T08:15:54;2.00;;;1.80;;
54807;SDS011;40708;50.364;7.550;2024-02-14T08:18:19;1.90;;;1.70;;
54807;SDS011;40708;50.364;7.550;2024-02-14T08:20:44;2.00;;;1.80;;
54807;SDS011;40708;50.364;7.550;2024-02-14T08:23:09;2.53;;;1.60;;
54807;SDS011;40708;50.364;7.550;2024-02-14T08:25:35;2.00;;;1.80;;
54807;SDS011;40708;50.364;7.550;2024-02-14T08:28:00;2.23;;;1.73;;
54807;SDS011;40708;50.364;7.550;2024-02-14T08:30:25;4.80;;;1.70;;
54807;SDS011;40708;50.364;7.550;2024-02-14T08:32:52;1.70;;;1.60;;
54807;SDS011;40708;50.364;7.550;2024-02-14T08:35:17;3.73;;;1.50;;
54807;SDS011;40708;50.364;7.550;2024-02-14T08:37:43;1.70;;;1.50;;
54807;SDS011;40708;50.364;7.550;2024-02-14T08:40:08;3.20;;;1.80;;
54807;SDS011;40708;50.364;7.550;2024-02-14T08:42:34;2.83;;;1.77;;
54807;SDS011;40708;50.364;7.550;2024-02-14T08:45:00;1.73;;;1.47;;
54807;SDS011;40708;50.364;7.550;2024-02-14T08:47:26;2.00;;;1.57;;
54807;SDS011;40708;50.364;7.550;2024-02-14T08:49:51;2.33;;;1.70;;
54807;SDS011;40708;50.364;7.550;2024-02-14T08:52:16;3.57;;;1.60;;
54807;SDS011;40708;50.364;7.550;2024-02-14T08:54:42;2.43;;;1.57;;
54807;SDS011;40708;50.364;7.550;2024-02-14T08:57:07;2.07;;;1.57;;
54807;SDS011;40708;50.364;7.550;2024-02-14T08:59:32;1.80;;;1.60;;
54807;SDS011;40708;50.364;7.550;2024-02-14T09:01:57;2.43;;;1.50;;
54807;SDS011;40708;50.364;7.550;2024-02-14T09:04:23;2.53;;;1.57;;
54807;SDS011;40708;50.364;7.550;2024-02-14T09:06:48;2.13;;;1.50;;
54807;SDS011;40708;50.364;7.550;2024-02-14T09:09:13;2.33;;;1.50;;
54807;SDS011;40708;50.364;7.550;2024-02-14T09:11:40;1.90;;;1.40;;
54807;SDS011;40708;50.364;7.550;2024-02-14T09:14:06;2.47;;;1.47;;
54807;SDS011;40708;50.364;7.550;2024-02-14T09:16:32;1.90;;;1.60;;
54807;SDS011;40708;50.364;7.550;2024-02-14T09:18:58;1.60;;;1.50;;
54807;SDS011;40708;50.364;7.550;2024-02-14T09:21:24;1.63;;;1.53;;
54807;SDS011;40708;50.364;7.550;2024-02-14T09:23:49;1.87;;;1.60;;
54807;SDS011;40708;50.364;7.550;2024-02-14T09:26:14;2.13;;;1.63;;
54807;SDS011;40708;50.364;7.550;2024-02-14T09:28:41;2.00;;;1.47;;
54807;SDS011;40708;50.364;7.550;2024-02-14T09:31:07;2.17;;;1.83;;
54807;SDS011;40708;50.364;7.550;2024-02-14T09:33:34;1.50;;;1.40;;
54807;SDS011;40708;50.364;7.550;2024-02-14T09:36:01;2.87;;;1.63;;
54807;SDS011;40708;50.364;7.550;2024-02-14T09:38:27;1.67;;;1.57;;
54807;SDS011;40708;50.364;7.550;2024-02-14T09:41:01;1.73;;;1.60;;
54807;SDS011;40708;50.364;7.550;2024-02-14T09:43:40;2.17;;;1.53;;
54807;SDS011;40708;50.364;7.550;2024-02-14T09:46:09;2.03;;;1.40;;
54807;SDS011;40708;50.364;7.550;2024-02-14T09:48:37;1.87;;;1.63;;
54807;SDS011;40708;50.364;7.550;2024-02-14T09:51:03;2.87;;;1.53;;
54807;SDS011;40708;50.364;7.550;2024-02-14T09:53:29;2.10;;;1.83;;
54807;SDS011;40708;50.364;7.550;2024-02-14T09:55:54;1.90;;;1.60;;
54807;SDS011;40708;50.364;7.550;2024-02-14T09:58:20;2.47;;;1.67;;
54807;SDS011;40708;50.364;7.550;2024-02-14T10:00:46;3.80;;;2.00;;
54807;SDS011;40708;50.364;7.550;2024-02-14T10:03:11;3.07;;;1.60;;
54807;SDS011;40708;50.364;7.550;2024-02-14T10:05:36;1.67;;;1.50;;
54807;SDS011;40708;50.364;7.550;2024-02-14T10:08:02;1.70;;;1.60;;
54807;SDS011;40708;50.364;7.550;2024-02-14T10:10:28;1.70;;;1.43;;
54807;SDS011;40708;50.364;7.550;2024-02-14T10:12:54;1.83;;;1.50;;
54807;SDS011;40708;50.364;7.550;2024-02-14T10:15:20;2.53;;;1.57;;
54807;SDS011;40708;50.364;7.550;2024-02-14T10:17:46;1.70;;;1.40;;
54807;SDS011;40708;50.364;7.550;2024-02-14T10:20:16;1.50;;;1.40;;
54807;SDS011;40708;50.364;7.550;2024-02-14T10:22:42;1.50;;;1.37;;
54807;SDS011;40708;50.364;7.550;2024-02-14T10:25:09;2.57;;;1.60;;
54807;SDS011;40708;50.364;7.550;2024-02-14T10:27:38;1.77;;;1.50;;
54807;SDS011;40708;50.364;7.550;2024-02-14T10:30:07;1.93;;;1.43;;
54807;SDS011;40708;50.364;7.550;2024-02-14T10:32:34;1.97;;;1.50;;
54807;SDS011;40708;50.364;7.550;2024-02-14T10:35:01;2.40;;;1.60;;
54807;SDS011;40708;50.364;7.550;2024-02-14T10:37:33;2.83;;;1.80;;
54807;SDS011;40708;50.364;7.550;2024-02-14T10:39:59;2.53;;;1.77;;
54807;SDS011;40708;50.364;7.550;2024-02-14T10:42:27;1.80;;;1.30;;
54807;SDS011;40708;50.364;7.550;2024-02-14T10:44:53;2.23;;;1.20;;
54807;SDS011;40708;50.364;7.550;2024-02-14T10:47:20;1.50;;;1.40;;
54807;SDS011;40708;50.364;7.550;2024-02-14T10:49:49;1.20;;;1.10;;
54807;SDS011;40708;50.364;7.550;2024-02-14T10:52:16;2.47;;;1.50;;
54807;SDS011;40708;50.364;7.550;2024-02-14T10:54:43;3.43;;;1.50;;
54807;SDS011;40708;50.364;7.550;2024-02-14T10:57:17;1.57;;;1.00;;
54807;SDS011;40708;50.364;7.550;2024-02-14T10:59:45;1.80;;;1.63;;
54807;SDS011;40708;50.364;7.550;2024-02-14T11:02:13;1.50;;;1.40;;
54807;SDS011;40708;50.364;7.550;2024-02-14T11:04:39;1.27;;;1.10;;
54807;SDS011;40708;50.364;7.550;2024-02-14T11:07:08;2.67;;;1.57;;
54807;SDS011;40708;50.364;7.550;2024-02-14T11:09:38;1.93;;;1.50;;
54807;SDS011;40708;50.364;7.550;2024-02-14T11:12:06;2.50;;;1.30;;
54807;SDS011;40708;50.364;7.550;2024-02-14T11:14:34;1.90;;;1.17;;
54807;SDS011;40708;50.364;7.550;2024-02-14T11:17:00;2.47;;;1.83;;
54807;SDS011;40708;50.364;7.550;2024-02-14T11:19:33;2.47;;;1.60;;
54807;SDS011;40708;50.364;7.550;2024-02-14T11:22:09;2.87;;;1.50;;
54807;SDS011;40708;50.364;7.550;2024-02-14T11:24:36;2.67;;;1.30;;
54807;SDS011;40708;50.364;7.550;2024-02-14T11:27:01;1.60;;;1.50;;
54807;SDS011;40708;50.364;7.550;2024-02-14T11:29:30;2.90;;;1.57;;
54807;SDS011;40708;50.364;7.550;2024-02-14T11:31:59;2.53;;;1.97;;
54807;SDS011;40708;50.364;7.550;2024-02-14T11:34:25;1.57;;;1.47;;
54807;SDS011;40708;50.364;7.550;2024-02-14T11:36:51;1.77;;;1.40;;
54807;SDS011;40708;50.364;7.550;2024-02-14T11:39:16;1.50;;;1.40;;
54807;SDS011;40708;50.364;7.550;2024-02-14T11:41:42;3.53;;;1.87;;
54807;SDS011;40708;50.364;7.550;2024-02-14T11:44:07;3.37;;;2.50;;
54807;SDS011;40708;50.364;7.550;2024-02-14T11:46:34;2.03;;;1.37;;
54807;SDS011;40708;50.364;7.550;2024-02-14T11:49:01;2.60;;;1.67;;
54807;SDS011;40708;50.364;7.550;2024-02-14T11:51:28;1.83;;;1.73;;
54807;SDS011;40708;50.364;7.550;2024-02-14T11:53:55;2.50;;;1.87;;
54807;SDS011;40708;50.364;7.550;2024-02-14T11:56:31;2.70;;;1.77;;
54807;SDS011;40708;50.364;7.550;2024-02-14T11:59:01;2.50;;;1.70;;
54807;SDS011;40708;50.364;7.550;2024-02-14T12:01:30;3.93;;;2.40;;
54807;SDS011;40708;50.364;7.550;2024-02-14T12:03:58;2.80;;;1.73;;
54807;SDS011;40708;50.364;7.550;2024-02-14T12:06:25;2.00;;;1.80;;
54807;SDS011;40708;50.364;7.550;2024-02-14T12:08:51;1.87;;;1.63;;
54807;SDS011;40708;50.364;7.550;2024-02-14T12:11:17;2.47;;;2.10;;
54807;SDS011;40708;50.364;7.550;2024-02-14T12:13:42;2.03;;;1.83;;
54807;SDS011;40708;50.364;7.550;2024-02-14T12:16:08;3.57;;;2.00;;
54807;SDS011;40708;50.364;7.550;2024-02-14T12:18:36;1.90;;;1.70;;
54807;SDS011;40708;50.364;7.550;2024-02-14T12:21:04;1.83;;;1.67;;
54807;SDS011;40708;50.364;7.550;2024-02-14T12:23:33;4.13;;;2.00;;
54807;SDS011;40708;50.364;7.550;2024-02-14T12:26:02;2.70;;;1.80;;
54807;SDS011;40708;50.364;7.550;2024-02-14T12:28:29;2.30;;;2.00;;
54807;SDS011;40708;50.364;7.550;2024-02-14T12:30:56;1.60;;;1.40;;
54807;SDS011;40708;50.364;7.550;2024-02-14T12:33:22;2.53;;;1.93;;
54807;SDS011;40708;50.364;7.550;2024-02-14T12:35:49;2.23;;;1.50;;
54807;SDS011;40708;50.364;7.550;2024-02-14T12:38:16;3.13;;;1.87;;
54807;SDS011;40708;50.364;7.550;2024-02-14T12:40:42;2.20;;;1.97;;
54807;SDS011;40708;50.364;7.550;2024-02-14T12:43:12;2.40;;;2.07;;
54807;SDS011;40708;50.364;7.550;2024-02-14T12:45:39;1.80;;;1.70;;
54807;SDS011;40708;50.364;7.550;2024-02-14T12:48:09;2.53;;;2.00;;
54807;SDS011;40708;50.364;7.550;2024-02-14T12:50:37;3.83;;;2.03;;
54807;SDS011;40708;50.364;7.550;2024-02-14T12:53:03;3.17;;;1.87;;
54807;SDS011;40708;50.364;7.550;2024-02-14T12:55:29;3.03;;;2.30;;
54807;SDS011;40708;50.364;7.550;2024-02-14T12:57:54;2.40;;;1.83;;
54807;SDS011;40708;50.364;7.550;2024-02-14T13:00:21;3.83;;;1.97;;
54807;SDS011;40708;50.364;7.550;2024-02-14T13:02:47;2.60;;;1.93;;
54807;SDS011;40708;50.364;7.550;2024-02-14T13:05:13;3.13;;;2.07;;
54807;SDS011;40708;50.364;7.550;2024-02-14T13:07:38;2.60;;;2.17;;
54807;SDS011;40708;50.364;7.550;2024-02-14T13:10:04;2.50;;;2.30;;
54807;SDS011;40708;50.364;7.550;2024-02-14T13:12:29;2.97;;;2.27;;
54807;SDS011;40708;50.364;7.550;2024-02-14T13:14:55;4.70;;;2.30;;
54807;SDS011;40708;50.364;7.550;2024-02-14T13:17:20;2.50;;;2.30;;
54807;SDS011;40708;50.364;7.550;2024-02-14T13:19:47;2.40;;;2.20;;
54807;SDS011;40708;50.364;7.550;2024-02-14T13:22:14;3.17;;;2.50;;
54807;SDS011;40708;50.364;7.550;2024-02-14T13:24:40;3.00;;;2.47;;
54807;SDS011;40708;50.364;7.550;2024-02-14T13:27:05;3.00;;;2.40;;
54807;SDS011;40708;50.364;7.550;2024-02-14T13:29:31;4.80;;;2.60;;
54807;SDS011;40708;50.364;7.550;2024-02-14T13:31:56;2.73;;;2.53;;
54807;SDS011;40708;50.364;7.550;2024-02-14T13:34:21;2.43;;;2.23;;
54807;SDS011;40708;50.364;7.550;2024-02-14T13:36:47;2.83;;;2.53;;
54807;SDS011;40708;50.364;7.550;2024-02-14T13:39:12;3.50;;;2.10;;
54807;SDS011;40708;50.364;7.550;2024-02-14T13:41:38;2.50;;;2.30;;
54807;SDS011;40708;50.364;7.550;2024-02-14T13:44:06;2.50;;;2.30;;
54807;SDS011;40708;50.364;7.550;2024-02-14T13:46:33;2.37;;;2.13;;
54807;SDS011;40708;50.364;7.550;2024-02-14T13:48:58;2.90;;;2.23;;
54807;SDS011;40708;50.364;7.550;2024-02-14T13:51:23;2.80;;;2.13;;
54807;SDS011;40708;50.364;7.550;2024-02-14T13:53:49;2.37;;;2.17;;
54807;SDS011;40708;50.364;7.550;2024-02-14T13:56:14;3.60;;;2.23;;
54807;SDS011;40708;50.364;7.550;2024-02-14T13:58:41;3.13;;;2.10;;
54807;SDS011;40708;50.364;7.550;2024-02-14T14:01:06;2.30;;;1.97;;
54807;SDS011;40708;50.364;7.550;2024-02-14T14:03:32;2.10;;;1.60;;
54807;SDS011;40708;50.364;7.550;2024-02-14T14:05:59;1.90;;;1.63;;
54807;SDS011;40708;50.364;7.550;2024-02-14T14:08:25;2.60;;;2.03;;
54807;SDS011;40708;50.364;7.550;2024-02-14T14:10:50;3.10;;;2.43;;
54807;SDS011;40708;50.364;7.550;2024-02-14T14:13:16;3.67;;;3.00;;
54807;SDS011;40708;50.364;7.550;2024-02-14T14:15:41;2.40;;;2.13;;
54807;SDS011;40708;50.364;7.550;2024-02-14T14:18:06;2.00;;;1.80;;
54807;SDS011;40708;50.364;7.550;2024-02-14T14:20:33;3.43;;;2.27;;
54807;SDS011;40708;50.364;7.550;2024-02-14T14:22:59;4.73;;;2.53;;
54807;SDS011;40708;50.364;7.550;2024-02-14T14:25:25;5.10;;;2.70;;
54807;SDS011;40708;50.364;7.550;2024-02-14T14:27:50;3.47;;;2.60;;
54807;SDS011;40708;50.364;7.550;2024-02-14T14:30:15;4.73;;;2.77;;
54807;SDS011;40708;50.364;7.550;2024-02-14T14:32:40;4.27;;;3.00;;
54807;SDS011;40708;50.364;7.550;2024-02-14T14:35:06;3.13;;;2.37;;
54807;SDS011;40708;50.364;7.550;2024-02-14T14:37:31;3.57;;;2.40;;
54807;SDS011;40708;50.364;7.550;2024-02-14T14:39:57;3.00;;;2.27;;
54807;SDS011;40708;50.364;7.550;2024-02-14T14:42:22;3.30;;;2.40;;